Time;durP1;ratioP1;P1;durP2;ratioP2;P2;SDS_P1;SDS_P2;PMS_P1;PMS_P2;Temp;Humidity;BMP_temperature;BMP_pressure;BME280_temperature;BME280_humidity;BME280_pressure;Samples;Min_cycle;Max_cycle;Signal;HPM_P1;HPM_P2
2021/09/03 00:01:38;;;;;;;;;;;;;;;14.92;83.69;102370.66;5052507;28;19936;-48
2021/09/03 00:04:05;;;;;;;;;;;;;;;14.90;83.88;102372.53;5052354;28;20562;-47
2021/09/03 00:06:32;;;;;;;;;;;;;;;14.89;84.10;102371.69;5052576;28;19994;-46
2021/09/03 00:08:59;;;;;;;;;;;;;;;14.86;84.08;102370.09;5051259;28;19947;-50
2021/09/03 00:11:25;;;;;;;;;;;;;;;14.87;83.61;102366.50;5051990;28;19932;-46
2021/09/03 00:13:52;;;;;;;;;;;;;;;14.88;83.67;102364.69;5051792;28;20323;-48
2021/09/03 00:16:19;;;;;;;;;;;;;;;14.94;83.76;102363.47;5052379;28;19940;-48
2021/09/03 00:18:46;;;;;;;;;;;;;;;14.86;83.78;102362.13;5052531;28;19928;-51
2021/09/03 00:21:13;;;;;;;;;;;;;;;14.70;85.12;102362.19;5052485;28;20012;-49
2021/09/03 00:23:40;;;;;;;;;;;;;;;14.75;84.51;102363.72;5050856;28;19929;-51
2021/09/03 00:26:06;;;;;;;;;;;;;;;14.80;84.64;102364.28;5067642;28;19925;-46
2021/09/03 00:28:33;;;;;;;;;;;;;;;14.71;84.67;102363.03;5050779;28;19925;-46
2021/09/03 00:31:00;;;;;;;;;;;;;;;14.69;84.90;102356.97;5051932;28;19936;-46
2021/09/03 00:33:26;;;;;;;;;;;;;;;14.65;85.23;102364.25;5067493;28;19939;-50
2021/09/03 00:35:53;;;;;;;;;;;;;;;14.66;85.10;102360.66;5052299;28;19932;-46
2021/09/03 00:38:20;;;;;;;;;;;;;;;14.63;84.95;102363.50;5050522;28;20301;-52
2021/09/03 00:40:47;;;;;;;;;;;;;;;14.67;85.05;102359.72;5052088;28;19928;-54
2021/09/03 00:43:13;;;;;;;;;;;;;;;14.73;84.89;102355.84;5065426;28;19929;-54
2021/09/03 00:45:40;;;;;;;;;;;;;;;14.68;84.74;102361.44;5052105;28;19925;-54
2021/09/03 00:48:07;;;;;;;;;;;;;;;14.65;85.09;102361.59;5050957;28;20019;-54
2021/09/03 00:50:34;;;;;;;;;;;;;;;14.65;84.50;102353.66;5051574;28;20327;-54
2021/09/03 00:53:00;;;;;;;;;;;;;;;14.65;85.22;102352.81;5050472;28;19979;-54
2021/09/03 00:55:27;;;;;;;;;;;;;;;14.54;85.40;102351.59;5051951;28;19933;-55
2021/09/03 00:57:54;;;;;;;;;;;;;;;14.52;85.55;102352.66;5065271;28;20003;-47
2021/09/03 01:00:20;;;;;;;;;;;;;;;14.50;85.63;102344.78;5050532;28;19931;-45
2021/09/03 01:02:47;;;;;;;;;;;;;;;14.45;85.97;102340.69;5051596;28;19931;-46
2021/09/03 01:05:14;;;;;;;;;;;;;;;14.49;85.58;102332.50;5051115;28;19929;-55
2021/09/03 01:07:41;;;;;;;;;;;;;;;14.43;86.21;102343.44;5050387;28;19925;-54
2021/09/03 01:10:07;;;;;;;;;;;;;;;14.48;85.91;102340.50;5050566;28;19990;-55
2021/09/03 01:12:34;;;;;;;;;;;;;;;14.46;85.80;102332.66;5049621;28;19982;-53
2021/09/03 01:15:01;;;;;;;;;;;;;;;14.44;85.98;102328.38;5051122;28;20122;-54
2021/09/03 01:17:28;;;;;;;;;;;;;;;14.46;85.92;102330.00;5051085;28;20947;-46
2021/09/03 01:19:55;;;;;;;;;;;;;;;14.37;86.21;102333.22;5050359;28;19979;-48
2021/09/03 01:22:22;;;;;;;;;;;;;;;14.34;86.42;102326.31;5050739;28;19978;-48
2021/09/03 01:24:48;;;;;;;;;;;;;;;14.34;86.84;102323.66;5051073;28;19933;-44
2021/09/03 01:27:15;;;;;;;;;;;;;;;14.25;87.12;102334.75;5049552;28;20654;-46
2021/09/03 01:29:42;;;;;;;;;;;;;;;14.24;87.61;102333.06;5051156;28;19931;-53
2021/09/03 01:32:08;;;;;;;;;;;;;;;14.25;86.84;102326.81;5050531;28;19929;-53
2021/09/03 01:34:35;;;;;;;;;;;;;;;14.25;86.98;102328.59;5050979;28;19929;-52
2021/09/03 01:37:02;;;;;;;;;;;;;;;14.26;86.86;102323.25;5050154;28;19924;-52
2021/09/03 01:39:28;;;;;;;;;;;;;;;14.28;86.63;102312.56;5050804;28;19936;-45
2021/09/03 01:41:55;;;;;;;;;;;;;;;14.29;86.37;102317.78;5049932;28;19928;-47
2021/09/03 01:44:22;;;;;;;;;;;;;;;14.27;86.56;102313.50;5065818;28;19971;-45
2021/09/03 01:46:48;;;;;;;;;;;;;;;14.23;87.11;102312.81;5050827;28;19928;-45
2021/09/03 01:49:15;;;;;;;;;;;;;;;14.23;87.11;102312.81;5050206;28;20399;-47
2021/09/03 01:51:42;;;;;;;;;;;;;;;14.17;87.37;102310.53;5051230;28;19925;-46
2021/09/03 01:54:08;;;;;;;;;;;;;;;14.12;87.66;102304.66;5048578;28;19924;-47
2021/09/03 01:56:35;;;;;;;;;;;;;;;14.10;87.85;102307.38;5050137;28;20613;-46
2021/09/03 01:59:02;;;;;;;;;;;;;;;14.17;87.15;102299.97;5050038;28;19932;-44
2021/09/03 02:01:28;;;;;;;;;;;;;;;14.07;87.77;102299.63;5049967;28;19933;-47
2021/09/03 02:03:55;;;;;;;;;;;;;;;14.03;87.75;102303.41;5050373;28;19925;-44
2021/09/03 02:06:22;;;;;;;;;;;;;;;13.96;88.39;102299.38;5050413;28;19925;-44
2021/09/03 02:08:48;;;;;;;;;;;;;;;13.99;88.03;102291.28;5050324;28;19924;-45
2021/09/03 02:11:15;;;;;;;;;;;;;;;13.95;88.15;102295.88;5049980;28;19967;-47
2021/09/03 02:13:42;;;;;;;;;;;;;;;14.00;87.78;102290.31;5047397;28;19925;-47
2021/09/03 02:16:08;;;;;;;;;;;;;;;14.04;87.86;102294.50;5048849;28;19954;-48
2021/09/03 02:18:35;;;;;;;;;;;;;;;13.98;88.07;102290.41;5049102;28;19960;-46
2021/09/03 02:21:02;;;;;;;;;;;;;;;13.96;88.19;102284.38;5050130;28;19932;-44
2021/09/03 02:23:28;;;;;;;;;;;;;;;13.92;88.36;102280.19;5049219;28;19928;-45
2021/09/03 02:25:55;;;;;;;;;;;;;;;13.91;88.36;102283.78;5050401;28;20406;-45
2021/09/03 02:28:22;;;;;;;;;;;;;;;13.88;88.74;102273.38;5048034;28;20391;-47
2021/09/03 02:30:48;;;;;;;;;;;;;;;13.86;88.53;102277.88;5049865;28;19987;-47
2021/09/03 02:33:15;;;;;;;;;;;;;;;13.84;88.79;102279.78;5050085;28;19925;-45
2021/09/03 02:35:43;;;;;;;;;;;;;;;13.80;88.96;102278.25;5049764;28;20015;-46
2021/09/03 02:38:12;;;;;;;;;;;;;;;13.84;88.50;102277.13;5048173;28;19925;-46
2021/09/03 02:40:39;;;;;;;;;;;;;;;13.77;88.43;102276.63;5065119;28;19925;-49
2021/09/03 02:43:06;;;;;;;;;;;;;;;13.75;88.85;102280.28;5046810;28;19979;-48
2021/09/03 02:45:33;;;;;;;;;;;;;;;13.72;89.03;102272.53;5050034;28;19925;-44
2021/09/03 02:48:01;;;;;;;;;;;;;;;13.66;89.61;102279.00;5050248;28;19931;-49
2021/09/03 02:50:31;;;;;;;;;;;;;;;13.72;89.09;102272.53;5049151;28;19932;-46
2021/09/03 02:52:58;;;;;;;;;;;;;;;13.77;88.77;102266.03;5048449;28;20644;-48
2021/09/03 02:55:26;;;;;;;;;;;;;;;13.76;88.77;102274.06;5065190;28;19963;-50
2021/09/03 02:57:53;;;;;;;;;;;;;;;13.66;89.26;102268.41;5048153;28;20406;-45
2021/09/03 03:00:20;;;;;;;;;;;;;;;13.68;89.17;102262.09;5066442;28;20028;-47
2021/09/03 03:02:47;;;;;;;;;;;;;;;13.71;88.80;102258.44;5056599;28;19960;-45
2021/09/03 03:05:13;;;;;;;;;;;;;;;13.75;88.39;102254.69;5056145;28;19946;-48
2021/09/03 03:07:40;;;;;;;;;;;;;;;13.68;88.47;102256.81;5054959;28;19932;-44
2021/09/03 03:10:07;;;;;;;;;;;;;;;13.64;88.63;102255.28;5056244;28;19982;-46
2021/09/03 03:12:34;;;;;;;;;;;;;;;13.60;88.82;102256.41;5070080;28;20284;-45
2021/09/03 03:15:01;;;;;;;;;;;;;;;13.63;89.08;102258.03;5071463;28;20299;-44
2021/09/03 03:17:28;;;;;;;;;;;;;;;13.48;89.76;102251.78;5056370;28;20470;-49
2021/09/03 03:19:55;;;;;;;;;;;;;;;13.47;89.84;102243.03;5055702;28;19924;-50
2021/09/03 03:22:21;;;;;;;;;;;;;;;13.43;89.92;102244.13;5055474;28;21029;-48
2021/09/03 03:24:48;;;;;;;;;;;;;;;13.47;89.61;102237.75;5056056;28;20415;-45
2021/09/03 03:27:15;;;;;;;;;;;;;;;13.49;89.22;102237.66;5054248;28;19929;-49
2021/09/03 03:29:45;;;;;;;;;;;;;;;13.45;89.30;102230.81;5054984;28;19974;-48
2021/09/03 03:32:11;;;;;;;;;;;;;;;13.40;89.77;102232.88;5055888;28;19925;-44
2021/09/03 03:34:38;;;;;;;;;;;;;;;13.38;89.42;102229.47;5055424;28;19952;-47
2021/09/03 03:37:05;;;;;;;;;;;;;;;13.34;89.77;102234.03;5055951;28;19925;-46
2021/09/03 03:39:31;;;;;;;;;;;;;;;13.28;90.21;102231.72;5055463;28;19935;-48
2021/09/03 03:41:58;;;;;;;;;;;;;;;13.18;90.77;102231.34;5054497;28;19929;-45
2021/09/03 03:44:24;;;;;;;;;;;;;;;13.12;91.16;102226.44;5055603;28;19924;-45
2021/09/03 03:46:51;;;;;;;;;;;;;;;13.06;91.59;102232.03;5056122;28;19924;-43
2021/09/03 03:49:18;;;;;;;;;;;;;;;13.10;91.22;102228.28;5055082;28;20237;-43
2021/09/03 03:51:47;;;;;;;;;;;;;;;13.08;90.83;102224.88;5055869;28;19939;-45
2021/09/03 03:54:13;;;;;;;;;;;;;;;13.05;91.25;102220.63;5053831;28;20375;-45
2021/09/03 03:56:40;;;;;;;;;;;;;;;13.01;91.69;102217.28;5069583;28;20417;-50
2021/09/03 03:59:07;;;;;;;;;;;;;;;12.96;91.83;102213.19;5055265;28;21014;-52
2021/09/03 04:01:35;;;;;;;;;;;;;;;12.94;92.00;102213.28;5055746;28;20355;-51
2021/09/03 04:04:02;;;;;;;;;;;;;;;13.00;91.56;102215.56;5054946;28;20024;-52
2021/09/03 04:06:28;;;;;;;;;;;;;;;12.98;91.74;102211.34;5070688;28;19929;-54
2021/09/03 04:08:55;;;;;;;;;;;;;;;13.01;91.16;102214.63;5055297;28;19971;-53
2021/09/03 04:11:22;;;;;;;;;;;;;;;13.02;91.01;102218.16;5054282;28;19925;-51
2021/09/03 04:13:49;;;;;;;;;;;;;;;13.07;91.06;102212.59;5050230;28;20031;-53
2021/09/03 04:16:15;;;;;;;;;;;;;;;13.07;90.71;102217.88;5051785;28;19928;-55
2021/09/03 04:18:42;;;;;;;;;;;;;;;13.11;90.44;102214.16;5052218;28;20000;-54
2021/09/03 04:21:09;;;;;;;;;;;;;;;13.08;90.61;102209.88;5050567;28;19925;-54
2021/09/03 04:23:35;;;;;;;;;;;;;;;13.01;90.90;102212.00;5050247;28;19929;-55
2021/09/03 04:26:02;;;;;;;;;;;;;;;13.01;90.96;102214.63;5067706;28;19964;-55
2021/09/03 04:28:28;;;;;;;;;;;;;;;12.99;90.94;102213.00;5049782;28;19929;-53
2021/09/03 04:30:55;;;;;;;;;;;;;;;12.96;91.25;102214.03;5067703;28;19928;-53
2021/09/03 04:33:22;;;;;;;;;;;;;;;12.99;91.02;102215.66;5051784;28;19925;-54
2021/09/03 04:35:48;;;;;;;;;;;;;;;12.94;91.28;102215.03;5051585;28;19974;-54
2021/09/03 04:38:15;;;;;;;;;;;;;;;12.85;92.12;102217.22;5051689;28;20054;-48
2021/09/03 04:40:43;;;;;;;;;;;;;;;12.88;92.00;102218.03;5050610;28;19925;-45
2021/09/03 04:43:10;;;;;;;;;;;;;;;12.75;93.00;102215.16;5049494;28;19935;-44
2021/09/03 04:45:37;;;;;;;;;;;;;;;12.73;93.05;102217.03;5051549;28;19928;-45
2021/09/03 04:48:04;;;;;;;;;;;;;;;12.69;93.46;102218.97;5052347;28;20340;-46
2021/09/03 04:50:30;;;;;;;;;;;;;;;12.72;93.29;102223.25;5049683;28;19924;-44
2021/09/03 04:52:57;;;;;;;;;;;;;;;12.61;94.14;102221.16;5051552;28;19952;-46
2021/09/03 04:55:24;;;;;;;;;;;;;;;12.66;93.76;102221.78;5051134;28;19928;-47
2021/09/03 04:57:50;;;;;;;;;;;;;;;12.64;93.90;102221.03;5049985;28;19971;-45
2021/09/03 05:00:17;;;;;;;;;;;;;;;12.66;93.78;102225.28;5066770;28;19935;-47
2021/09/03 05:02:44;;;;;;;;;;;;;;;12.66;93.88;102213.88;5066758;28;19931;-50
2021/09/03 05:05:11;;;;;;;;;;;;;;;12.77;93.14;102211.50;5066213;28;19931;-50
2021/09/03 05:07:38;;;;;;;;;;;;;;;12.76;92.85;102214.22;5066413;28;19929;-49
2021/09/03 05:10:05;;;;;;;;;;;;;;;12.79;92.77;102211.47;5051431;28;20295;-49
2021/09/03 05:12:32;;;;;;;;;;;;;;;12.82;92.59;102206.00;5049214;28;19948;-46
2021/09/03 05:14:59;;;;;;;;;;;;;;;12.85;92.28;102211.13;5050897;28;20708;-46
2021/09/03 05:17:27;;;;;;;;;;;;;;;12.82;92.65;102213.91;5050898;28;20383;-48
2021/09/03 05:19:53;;;;;;;;;;;;;;;12.89;92.37;102209.19;5066196;28;19925;-50
2021/09/03 05:22:20;;;;;;;;;;;;;;;12.85;92.44;102213.75;5050993;28;19942;-46
2021/09/03 05:24:46;;;;;;;;;;;;;;;12.82;92.53;102206.84;5050342;28;20576;-46
2021/09/03 05:27:13;;;;;;;;;;;;;;;12.83;92.48;102203.28;5048679;28;19924;-46
2021/09/03 05:29:40;;;;;;;;;;;;;;;12.83;92.20;102205.91;5050662;28;19929;-46
2021/09/03 05:32:06;;;;;;;;;;;;;;;12.87;92.56;102208.38;5050919;28;20446;-45
2021/09/03 05:34:33;;;;;;;;;;;;;;;12.88;92.67;102203.03;5050258;28;19971;-44
2021/09/03 05:37:00;;;;;;;;;;;;;;;12.89;92.35;102212.66;5048846;28;19931;-49
2021/09/03 05:39:26;;;;;;;;;;;;;;;12.92;92.50;102212.47;5049840;28;20496;-53
2021/09/03 05:41:53;;;;;;;;;;;;;;;12.89;92.97;102212.66;5049084;28;19929;-53
2021/09/03 05:44:20;;;;;;;;;;;;;;;12.90;92.81;102211.72;5049478;28;19975;-52
2021/09/03 05:46:46;;;;;;;;;;;;;;;12.85;93.47;102219.03;5050920;28;19931;-51
2021/09/03 05:49:13;;;;;;;;;;;;;;;12.92;93.41;102220.41;5064963;28;19932;-50
2021/09/03 05:51:40;;;;;;;;;;;;;;;12.97;93.18;102221.03;5050364;28;19932;-52
2021/09/03 05:54:09;;;;;;;;;;;;;;;12.93;94.05;102216.84;5050469;28;20338;-50
2021/09/03 05:56:36;;;;;;;;;;;;;;;12.94;94.05;102213.28;5049784;28;19929;-52
2021/09/03 05:59:03;;;;;;;;;;;;;;;13.00;93.65;102212.91;5050125;28;19929;-53
2021/09/03 06:01:30;;;;;;;;;;;;;;;13.09;93.74;102221.28;5050192;28;20284;-52
2021/09/03 06:03:57;;;;;;;;;;;;;;;13.10;93.96;102223.00;5065651;28;19929;-54
2021/09/03 06:06:24;;;;;;;;;;;;;;;13.13;93.79;102212.25;5032187;28;19931;-52
2021/09/03 06:08:52;;;;;;;;;;;;;;;13.24;93.68;102223.13;5050319;28;19987;-51
2021/09/03 06:11:21;;;;;;;;;;;;;;;13.31;93.45;102207.78;5049294;28;19928;-53
2021/09/03 06:13:48;;;;;;;;;;;;;;;13.28;93.64;102214.09;5049275;28;19940;-54
2021/09/03 06:16:14;;;;;;;;;;;;;;;13.34;93.80;102211.09;5065459;28;20015;-53
2021/09/03 06:18:42;;;;;;;;;;;;;;;13.43;93.45;102207.13;5050204;28;19924;-51
2021/09/03 06:21:08;;;;;;;;;;;;;;;13.50;93.47;102207.66;5048612;28;19936;-51
2021/09/03 06:23:35;;;;;;;;;;;;;;;13.60;92.90;102207.97;5065141;28;19925;-52
2021/09/03 06:26:02;;;;;;;;;;;;;;;13.72;92.35;102217.00;5050065;28;19925;-53
2021/09/03 06:28:28;;;;;;;;;;;;;;;13.80;91.92;102217.44;5048305;28;19932;-52
2021/09/03 06:30:55;;;;;;;;;;;;;;;13.87;92.24;102221.41;5064971;28;20486;-52
2021/09/03 06:33:22;;;;;;;;;;;;;;;13.95;91.67;102216.53;5049942;28;19925;-53
2021/09/03 06:35:49;;;;;;;;;;;;;;;13.97;91.70;102219.94;5049023;28;19932;-52
2021/09/03 06:38:15;;;;;;;;;;;;;;;14.00;91.51;102219.78;5049843;28;19928;-49
2021/09/03 06:40:42;;;;;;;;;;;;;;;14.14;91.46;102218.13;5049721;28;19925;-53
2021/09/03 06:43:09;;;;;;;;;;;;;;;14.16;91.05;102217.06;5047902;28;20299;-54
2021/09/03 06:45:35;;;;;;;;;;;;;;;14.22;90.64;102222.94;5049584;28;20343;-52
2021/09/03 06:48:02;;;;;;;;;;;;;;;14.27;90.69;102219.09;5049966;28;20351;-54
2021/09/03 06:50:29;;;;;;;;;;;;;;;14.46;89.42;102215.34;5048513;28;19925;-53
2021/09/03 06:52:55;;;;;;;;;;;;;;;14.48;89.28;102214.31;5049452;28;19924;-54
2021/09/03 06:55:22;;;;;;;;;;;;;;;14.53;88.92;102216.69;5049339;28;19924;-53
2021/09/03 06:57:49;;;;;;;;;;;;;;;14.62;89.17;102221.44;5048117;28;19929;-53
2021/09/03 07:00:16;;;;;;;;;;;;;;;14.70;88.90;102218.34;5049546;28;19935;-53
2021/09/03 07:02:42;;;;;;;;;;;;;;;14.86;88.66;102216.47;5048753;28;19925;-54
2021/09/03 07:05:11;;;;;;;;;;;;;;;14.97;88.04;102215.81;5048786;28;19925;-51
2021/09/03 07:07:39;;;;;;;;;;;;;;;15.08;87.16;102214.28;5049495;28;19932;-54
2021/09/03 07:10:06;;;;;;;;;;;;;;;15.17;86.63;102216.34;5049899;28;20374;-52
2021/09/03 07:12:32;;;;;;;;;;;;;;;15.35;85.59;102217.84;5047598;28;19932;-53
2021/09/03 07:14:59;;;;;;;;;;;;;;;15.40;85.32;102216.69;5049404;28;19925;-52
2021/09/03 07:17:26;;;;;;;;;;;;;;;15.51;85.22;102220.34;5049325;28;19929;-53
2021/09/03 07:19:53;;;;;;;;;;;;;;;15.60;84.69;102224.22;5049177;28;19936;-54
2021/09/03 07:22:20;;;;;;;;;;;;;;;15.68;83.80;102213.97;5049348;28;20347;-54
2021/09/03 07:24:46;;;;;;;;;;;;;;;15.92;82.73;102217.78;5049381;28;19925;-52
2021/09/03 07:27:13;;;;;;;;;;;;;;;15.98;82.36;102212.06;5047408;28;19924;-51
2021/09/03 07:29:41;;;;;;;;;;;;;;;16.12;81.57;102208.50;5047887;28;19936;-54
2021/09/03 07:32:08;;;;;;;;;;;;;;;16.11;81.45;102209.44;5049404;28;19933;-54
2021/09/03 07:34:35;;;;;;;;;;;;;;;16.27;81.47;102201.31;5047561;28;19924;-55
2021/09/03 07:37:01;;;;;;;;;;;;;;;16.41;81.08;102197.72;5049487;28;19986;-54
2021/09/03 07:39:29;;;;;;;;;;;;;;;16.56;79.87;102202.81;5049118;28;19978;-54
2021/09/03 07:41:56;;;;;;;;;;;;;;;16.74;79.54;102197.16;5048127;28;19928;-53
2021/09/03 07:44:23;;;;;;;;;;;;;;;16.82;79.55;102197.47;5047457;28;19925;-53
2021/09/03 07:46:49;;;;;;;;;;;;;;;17.05;78.26;102198.53;5050076;28;19945;-54
2021/09/03 07:49:16;;;;;;;;;;;;;;;17.19;78.42;102192.25;5052370;28;20346;-53
2021/09/03 07:51:43;;;;;;;;;;;;;;;17.38;77.66;102194.41;5052973;28;20307;-54
2021/09/03 07:54:14;;;;;;;;;;;;;;;17.54;77.27;102188.81;5052789;28;19925;-53
2021/09/03 07:56:40;;;;;;;;;;;;;;;17.68;76.15;102185.16;5066508;28;20430;-50
2021/09/03 07:59:07;;;;;;;;;;;;;;;17.88;75.85;102191.63;5052567;28;19929;-52
2021/09/03 08:01:33;;;;;;;;;;;;;;;18.07;74.13;102190.28;5052749;28;19925;-52
2021/09/03 08:04:01;;;;;;;;;;;;;;;18.17;74.68;102185.94;5050556;28;19970;-50
2021/09/03 08:06:27;;;;;;;;;;;;;;;18.33;73.78;102188.28;5067584;28;19936;-49
2021/09/03 08:08:54;;;;;;;;;;;;;;;18.46;72.93;102184.66;5052796;28;19925;-52
2021/09/03 08:11:21;;;;;;;;;;;;;;;18.63;72.73;102186.03;5051927;28;20360;-55
2021/09/03 08:13:48;;;;;;;;;;;;;;;18.78;72.09;102178.63;5051143;28;19956;-52
2021/09/03 08:16:15;;;;;;;;;;;;;;;18.93;71.21;102185.44;5052057;28;20355;-53
2021/09/03 08:18:42;;;;;;;;;;;;;;;19.13;71.09;102182.97;5052648;28;19932;-53
2021/09/03 08:21:08;;;;;;;;;;;;;;;19.38;70.80;102192.50;5052003;28;19933;-52
2021/09/03 08:23:35;;;;;;;;;;;;;;;19.56;70.16;102192.81;5052097;28;19979;-45
2021/09/03 08:26:02;;;;;;;;;;;;;;;19.61;69.84;102187.97;5051865;28;19971;-48
2021/09/03 08:28:28;;;;;;;;;;;;;;;19.86;68.67;102180.59;5050256;28;20395;-47
2021/09/03 08:30:55;;;;;;;;;;;;;;;19.96;68.38;102186.88;5051817;28;20558;-48
2021/09/03 08:33:22;;;;;;;;;;;;;;;20.10;67.73;102189.22;5051589;28;19935;-51
2021/09/03 08:35:49;;;;;;;;;;;;;;;20.35;66.97;102178.25;5051998;28;19964;-49
2021/09/03 08:38:15;;;;;;;;;;;;;;;20.44;67.15;102180.97;5051466;28;20019;-47
2021/09/03 08:40:42;;;;;;;;;;;;;;;20.63;66.38;102178.53;5052041;28;19999;-50
2021/09/03 08:43:09;;;;;;;;;;;;;;;20.75;65.91;102177.50;5049652;28;20269;-46
2021/09/03 08:45:35;;;;;;;;;;;;;;;20.88;65.60;102177.28;5067314;28;19932;-50
2021/09/03 08:48:02;;;;;;;;;;;;;;;21.03;65.41;102181.25;5052134;28;19967;-49
2021/09/03 08:50:29;;;;;;;;;;;;;;;21.20;64.13;102186.91;5051007;28;20303;-50
2021/09/03 08:52:56;;;;;;;;;;;;;;;21.52;64.10;102188.53;5051607;28;20295;-50
2021/09/03 08:55:22;;;;;;;;;;;;;;;21.70;62.56;102178.00;5066978;28;20391;-51
2021/09/03 08:57:49;;;;;;;;;;;;;;;21.72;62.85;102182.22;5048358;28;19929;-49
2021/09/03 09:00:23;;;;;;;;;;;;;;;21.90;62.74;102184.19;5051366;28;19925;-53
2021/09/03 09:03:18;;;;;;;;;;;;;;;22.20;62.44;102179.66;5066928;28;19935;-54
2021/09/03 09:05:56;;;;;;;;;;;;;;;22.35;61.16;102188.09;5050311;28;19934;-56
2021/09/03 09:08:24;;;;;;;;;;;;;;;22.32;60.68;102183.84;5051288;28;19924;-51
2021/09/03 09:10:56;;;;;;;;;;;;;;;22.58;61.02;102189.44;5051477;28;19975;-48
2021/09/03 09:13:24;;;;;;;;;;;;;;;22.69;60.11;102185.72;5049698;28;19928;-48
2021/09/03 09:16:01;;;;;;;;;;;;;;;22.85;58.57;102189.59;5050049;28;19924;-50
2021/09/03 09:18:31;;;;;;;;;;;;;;;22.89;57.93;102181.13;5051604;28;20323;-47
2021/09/03 09:21:11;;;;;;;;;;;;;;;23.10;58.25;102183.53;5066588;28;19982;-48
2021/09/03 09:23:38;;;;;;;;;;;;;;;23.18;58.44;102184.63;5066036;28;19975;-46
2021/09/03 09:26:05;;;;;;;;;;;;;;;23.36;57.88;102182.81;5049767;28;20403;-49
2021/09/03 09:28:34;;;;;;;;;;;;;;;23.46;56.94;102177.38;5048244;28;19936;-52
2021/09/03 09:31:01;;;;;;;;;;;;;;;23.51;57.24;102179.63;5050910;28;19925;-52
2021/09/03 09:33:27;;;;;;;;;;;;;;;23.68;56.46;102176.06;5066105;28;20043;-52
2021/09/03 09:35:55;;;;;;;;;;;;;;;23.91;56.39;102170.25;5050683;28;19925;-49
2021/09/03 09:38:23;;;;;;;;;;;;;;;23.93;55.08;102170.94;5050442;28;19925;-48
2021/09/03 09:40:51;;;;;;;;;;;;;;;23.94;54.51;102165.41;5051129;28;20396;-51
2021/09/03 09:43:27;;;;;;;;;;;;;;;24.01;55.03;102167.47;5063710;28;20441;-46
2021/09/03 09:46:13;;;;;;;;;;;;;;;24.12;54.33;102160.00;5051000;28;20446;-49
2021/09/03 09:48:49;;;;;;;;;;;;;;;24.34;53.75;102154.22;5050873;28;19925;-50
2021/09/03 09:51:21;;;;;;;;;;;;;;;24.76;54.36;102161.53;5050601;28;19924;-53
2021/09/03 09:54:20;;;;;;;;;;;;;;;24.83;52.81;102159.88;5050276;28;20438;-50
2021/09/03 09:56:48;;;;;;;;;;;;;;;24.95;53.40;102152.34;5026651;28;19931;-46
2021/09/03 09:59:15;;;;;;;;;;;;;;;25.02;52.43;102144.44;5050145;28;19925;-49
2021/09/03 10:01:42;;;;;;;;;;;;;;;25.09;52.11;102151.72;5050751;28;19932;-47
2021/09/03 10:04:10;;;;;;;;;;;;;;;25.20;51.84;102155.94;5049783;28;19929;-45
2021/09/03 10:06:38;;;;;;;;;;;;;;;25.29;52.53;102151.41;5050458;28;19924;-47
2021/09/03 10:09:07;;;;;;;;;;;;;;;25.48;51.03;102150.28;5050570;28;20020;-46
2021/09/03 10:11:35;;;;;;;;;;;;;;;25.45;51.12;102147.94;5049695;28;20434;-46
2021/09/03 10:14:03;;;;;;;;;;;;;;;25.68;50.13;102149.97;5048408;28;19931;-47
2021/09/03 10:16:29;;;;;;;;;;;;;;;25.73;50.78;102153.84;5049876;28;20366;-48
2021/09/03 10:18:57;;;;;;;;;;;;;;;25.78;49.80;102150.63;5049090;28;20399;-49
2021/09/03 10:21:24;;;;;;;;;;;;;;;26.13;50.55;102149.41;5065476;28;20420;-50
2021/09/03 10:23:55;;;;;;;;;;;;;;;26.20;48.54;102140.66;5064881;28;19970;-51
2021/09/03 10:26:26;;;;;;;;;;;;;;;26.19;49.49;102138.97;5049504;28;19931;-50
2021/09/03 10:29:11;;;;;;;;;;;;;;;26.32;50.12;102136.56;5048553;28;19925;-47
2021/09/03 10:31:56;;;;;;;;;;;;;;;26.41;47.86;102140.06;5049883;28;19925;-50
2021/09/03 10:34:50;;;;;;;;;;;;;;;26.57;47.39;102141.88;5048118;28;19929;-48
2021/09/03 10:37:19;;;;;;;;;;;;;;;26.70;47.87;102142.19;5049625;28;19925;-51
2021/09/03 10:40:02;;;;;;;;;;;;;;;26.56;47.75;102137.50;5049589;28;19975;-44
2021/09/03 10:42:42;;;;;;;;;;;;;;;26.68;48.38;102121.75;5047431;28;19928;-46
2021/09/03 10:45:10;;;;;;;;;;;;;;;26.91;48.43;102128.06;5043400;28;19928;-48
2021/09/03 10:47:43;;;;;;;;;;;;;;;27.22;47.70;102129.06;5049382;28;19951;-47
2021/09/03 10:50:10;;;;;;;;;;;;;;;27.37;45.87;102121.06;5048871;28;20414;-50
2021/09/03 10:52:36;;;;;;;;;;;;;;;27.25;46.44;102117.91;5049286;28;19979;-50
2021/09/03 10:55:07;;;;;;;;;;;;;;;27.41;45.51;102115.09;5048823;28;20395;-47
2021/09/03 10:57:54;;;;;;;;;;;;;;;27.65;45.83;102105.97;5047391;28;20443;-47
2021/09/03 11:00:20;;;;;;;;;;;;;;;27.67;44.76;102103.88;5047859;28;19932;-50
2021/09/03 11:02:47;;;;;;;;;;;;;;;27.63;44.71;102093.66;5049355;28;19924;-49
2021/09/03 11:05:14;;;;;;;;;;;;;;;27.81;44.40;102099.56;5048985;28;19928;-44
2021/09/03 11:07:41;;;;;;;;;;;;;;;27.38;44.91;102096.56;5047743;28;20395;-48
2021/09/03 11:10:15;;;;;;;;;;;;;;;27.69;45.28;102090.19;5047889;28;19976;-50
2021/09/03 11:12:48;;;;;;;;;;;;;;;27.51;44.31;102097.81;5047538;28;19986;-47
2021/09/03 11:15:15;;;;;;;;;;;;;;;27.80;44.22;102095.16;5047871;28;19928;-46
2021/09/03 11:17:42;;;;;;;;;;;;;;;27.68;44.43;102093.94;5048390;28;20015;-46
2021/09/03 11:20:09;;;;;;;;;;;;;;;27.78;43.96;102094.50;5049102;28;19979;-44
2021/09/03 11:22:38;;;;;;;;;;;;;;;28.31;43.73;102086.34;5051757;28;19932;-44
2021/09/03 11:25:07;;;;;;;;;;;;;;;28.12;44.12;102082.34;5053656;28;19925;-45
2021/09/03 11:27:35;;;;;;;;;;;;;;;28.28;43.67;102083.19;5050850;28;19924;-45
2021/09/03 11:30:06;;;;;;;;;;;;;;;28.08;44.31;102075.63;5051967;28;20323;-44
2021/09/03 11:32:38;;;;;;;;;;;;;;;27.98;44.29;102075.06;5052327;28;19967;-44
2021/09/03 11:35:11;;;;;;;;;;;;;;;28.06;42.93;102068.72;5053162;28;19925;-44
2021/09/03 11:37:41;;;;;;;;;;;;;;;27.99;43.30;102068.59;5053173;28;20388;-44
2021/09/03 11:40:07;;;;;;;;;;;;;;;27.89;43.62;102062.66;5035598;28;19929;-48
2021/09/03 11:42:35;;;;;;;;;;;;;;;28.06;44.55;102066.03;5051062;28;19932;-48
2021/09/03 11:45:03;;;;;;;;;;;;;;;28.14;43.13;102068.63;5052300;28;19925;-49
2021/09/03 11:47:34;;;;;;;;;;;;;;;28.70;43.17;102068.13;5051128;28;19924;-48
2021/09/03 11:50:05;;;;;;;;;;;;;;;28.68;42.25;102064.75;5051175;28;19928;-49
2021/09/03 11:52:32;;;;;;;;;;;;;;;28.93;41.60;102061.66;5050929;28;20374;-48
2021/09/03 11:54:58;;;;;;;;;;;;;;;28.60;42.70;102060.25;5052830;28;20562;-48
2021/09/03 11:57:25;;;;;;;;;;;;;;;29.09;42.53;102056.00;5049706;28;20019;-45
2021/09/03 11:59:53;;;;;;;;;;;;;;;29.05;41.42;102064.72;5052967;28;19979;-49
2021/09/03 12:02:20;;;;;;;;;;;;;;;29.11;41.97;102053.09;5052881;28;20061;-49
2021/09/03 12:04:47;;;;;;;;;;;;;;;28.99;41.22;102055.50;5052457;28;19925;-49
2021/09/03 12:07:17;;;;;;;;;;;;;;;28.98;41.61;102049.22;5051145;28;19929;-49
2021/09/03 12:09:44;;;;;;;;;;;;;;;28.96;41.17;102045.03;5051925;28;20368;-51
2021/09/03 12:12:10;;;;;;;;;;;;;;;28.90;40.41;102035.81;5050707;28;19928;-51
2021/09/03 12:14:37;;;;;;;;;;;;;;;29.09;40.54;102045.16;5051683;28;19990;-47
2021/09/03 12:17:04;;;;;;;;;;;;;;;28.83;40.65;102035.75;5052880;28;19928;-44
2021/09/03 12:19:36;;;;;;;;;;;;;;;28.79;40.71;102029.06;5052292;28;20023;-50
2021/09/03 12:22:03;;;;;;;;;;;;;;;28.98;40.57;102029.44;5052450;28;19932;-46
2021/09/03 12:24:30;;;;;;;;;;;;;;;29.45;40.78;102029.84;5052111;28;19924;-46
2021/09/03 12:26:58;;;;;;;;;;;;;;;29.53;39.08;102031.59;5051335;28;19983;-48
2021/09/03 12:29:29;;;;;;;;;;;;;;;29.59;39.94;102026.22;5052038;28;19972;-49
2021/09/03 12:31:57;;;;;;;;;;;;;;;29.40;39.80;102026.91;5051301;28;20445;-51
2021/09/03 12:34:25;;;;;;;;;;;;;;;29.67;39.34;102030.66;5050079;28;19947;-49
2021/09/03 12:36:59;;;;;;;;;;;;;;;29.57;38.69;102030.16;5051184;28;19929;-48
2021/09/03 12:39:27;;;;;;;;;;;;;;;29.39;39.00;102026.06;5051865;28;19932;-50